createdAt,value
2018-08-25T00:01:58.429Z,12.20
2018-08-25T00:04:26.824Z,12.10
2018-08-25T00:06:55.179Z,12.10
2018-08-25T00:09:23.535Z,12.10
2018-08-25T00:11:51.948Z,12.10
2018-08-25T00:14:20.265Z,12.10
2018-08-25T00:16:48.625Z,12.10
2018-08-25T00:19:16.954Z,12.10
2018-08-25T00:21:45.298Z,12.10
2018-08-25T00:24:13.814Z,12.10
2018-08-25T00:26:42.104Z,12.00
2018-08-25T00:29:10.738Z,12.10
2018-08-25T00:31:39.218Z,12.10
2018-08-25T00:34:07.538Z,12.10
2018-08-25T00:36:35.809Z,12.10
2018-08-25T00:39:05.796Z,12.10
2018-08-25T00:41:34.090Z,12.00
2018-08-25T00:44:02.732Z,12.00
2018-08-25T00:46:31.423Z,12.00
2018-08-25T00:48:59.827Z,11.90
2018-08-25T00:51:28.112Z,11.90
2018-08-25T00:53:56.719Z,11.90
2018-08-25T00:56:25.042Z,11.90
2018-08-25T00:58:53.326Z,12.00
2018-08-25T01:01:21.594Z,12.00
2018-08-25T01:03:49.835Z,12.00
2018-08-25T01:06:18.126Z,12.10
2018-08-25T01:08:46.389Z,12.00
2018-08-25T01:11:14.715Z,12.00
2018-08-25T01:13:43.332Z,12.10
2018-08-25T01:16:11.662Z,12.10
2018-08-25T01:18:40.309Z,12.10
2018-08-25T01:21:08.596Z,12.10
2018-08-25T01:23:36.945Z,12.10
2018-08-25T01:26:05.491Z,12.10
2018-08-25T01:28:33.823Z,12.10
2018-08-25T01:31:02.254Z,12.10
2018-08-25T01:33:30.758Z,12.10
2018-08-25T01:35:59.121Z,12.10
2018-08-25T01:38:27.812Z,12.20
2018-08-25T01:40:56.545Z,12.20
2018-08-25T01:43:24.877Z,12.20
2018-08-25T01:45:53.643Z,12.20
2018-08-25T01:48:22.113Z,12.20
2018-08-25T01:50:52.125Z,12.20
2018-08-25T01:53:20.515Z,12.20
2018-08-25T01:55:49.203Z,12.30
2018-08-25T01:58:17.658Z,12.30
2018-08-25T02:00:46.148Z,12.30
2018-08-25T02:03:15.239Z,12.30
2018-08-25T02:05:43.943Z,12.30
2018-08-25T02:08:12.370Z,12.30
2018-08-25T02:10:40.698Z,12.30
2018-08-25T02:13:09.289Z,12.30
2018-08-25T02:15:37.758Z,12.30
2018-08-25T02:18:06.139Z,12.20
2018-08-25T02:20:34.457Z,12.10
2018-08-25T02:23:02.776Z,12.10
2018-08-25T02:25:31.079Z,12.10
2018-08-25T02:27:59.484Z,12.10
2018-08-25T02:30:27.801Z,12.10
2018-08-25T02:32:56.133Z,12.00
2018-08-25T02:35:24.564Z,11.90
2018-08-25T02:37:52.991Z,11.80
2018-08-25T02:40:21.847Z,11.70
2018-08-25T02:42:50.341Z,11.60
2018-08-25T02:45:18.955Z,11.60
2018-08-25T02:47:47.337Z,11.50
2018-08-25T02:50:15.888Z,11.40
2018-08-25T02:52:44.329Z,11.40
2018-08-25T02:55:12.740Z,11.40
2018-08-25T02:57:41.095Z,11.30
2018-08-25T03:00:09.838Z,11.30
2018-08-25T03:02:38.168Z,11.30
2018-08-25T03:05:07.008Z,11.30
2018-08-25T03:07:35.705Z,11.30
2018-08-25T03:10:04.606Z,11.30
2018-08-25T03:12:33.192Z,11.30
2018-08-25T03:15:01.869Z,11.20
2018-08-25T03:17:30.736Z,11.20
2018-08-25T03:19:59.165Z,11.20
2018-08-25T03:22:27.971Z,11.20
2018-08-25T03:24:56.337Z,11.20
2018-08-25T03:27:24.674Z,11.10
2018-08-25T03:29:53.208Z,11.00
2018-08-25T03:32:21.547Z,11.00
2018-08-25T03:34:49.942Z,11.00
2018-08-25T03:37:18.290Z,11.00
2018-08-25T03:39:46.668Z,11.00
2018-08-25T03:42:15.368Z,11.00
2018-08-25T03:44:44.143Z,11.00
2018-08-25T03:47:12.491Z,11.00
2018-08-25T03:49:40.856Z,11.00
2018-08-25T03:52:09.224Z,11.00
2018-08-25T03:54:37.570Z,11.00
2018-08-25T03:57:06.309Z,11.00
2018-08-25T03:59:34.688Z,11.10
2018-08-25T04:02:03.025Z,11.00
2018-08-25T04:04:31.419Z,11.00
2018-08-25T04:06:59.784Z,11.10
2018-08-25T04:09:28.206Z,11.10
2018-08-25T04:11:56.913Z,11.10
2018-08-25T04:14:25.236Z,11.00
2018-08-25T04:16:54.091Z,11.00
2018-08-25T04:19:22.518Z,11.00
2018-08-25T04:21:51.258Z,10.90
2018-08-25T04:24:19.598Z,10.90
2018-08-25T04:26:47.974Z,10.90
2018-08-25T04:29:16.387Z,10.90
2018-08-25T04:31:45.173Z,10.90
2018-08-25T04:34:13.813Z,10.90
2018-08-25T04:36:42.180Z,10.80
2018-08-25T04:39:11.680Z,10.80
2018-08-25T04:41:40.016Z,10.80
2018-08-25T04:44:08.598Z,10.80
2018-08-25T04:46:37.019Z,10.80
2018-08-25T04:49:05.601Z,10.80
2018-08-25T04:51:33.969Z,10.80
2018-08-25T04:54:02.287Z,10.90
2018-08-25T04:56:30.615Z,10.80
2018-08-25T04:58:58.936Z,10.80
2018-08-25T05:01:27.229Z,10.80
2018-08-25T05:03:55.537Z,10.80
2018-08-25T05:06:23.966Z,10.80
2018-08-25T05:08:52.236Z,10.90
2018-08-25T05:11:20.589Z,10.90
2018-08-25T05:13:48.875Z,10.90
2018-08-25T05:16:17.213Z,11.00
2018-08-25T05:18:45.594Z,11.00
2018-08-25T05:21:14.134Z,11.00
2018-08-25T05:23:42.461Z,11.00
2018-08-25T05:26:10.780Z,11.00
2018-08-25T05:28:39.142Z,11.00
2018-08-25T05:31:07.809Z,11.00
2018-08-25T05:33:36.132Z,11.10
2018-08-25T05:36:04.531Z,11.10
2018-08-25T05:38:33.331Z,11.10
2018-08-25T05:41:01.669Z,11.10
2018-08-25T05:43:30.047Z,11.20
2018-08-25T05:45:58.343Z,11.20
2018-08-25T05:48:26.648Z,11.30
2018-08-25T05:50:55.119Z,11.30
2018-08-25T05:53:23.427Z,11.40
2018-08-25T05:55:51.701Z,11.50
2018-08-25T05:58:20.202Z,11.50
2018-08-25T06:00:50.110Z,11.60
2018-08-25T06:03:18.684Z,11.60
2018-08-25T06:05:47.030Z,11.60
2018-08-25T06:08:15.338Z,11.60
2018-08-25T06:10:43.644Z,11.60
2018-08-25T06:13:11.943Z,11.70
2018-08-25T06:15:40.220Z,11.70
2018-08-25T06:18:08.573Z,11.70
2018-08-25T06:20:36.879Z,11.70
2018-08-25T06:23:05.286Z,11.80
2018-08-25T06:25:33.724Z,11.90
2018-08-25T06:28:02.030Z,12.00
2018-08-25T06:30:30.366Z,12.00
2018-08-25T06:32:58.673Z,12.00
2018-08-25T06:35:27.656Z,12.10
2018-08-25T06:37:56.013Z,12.20
2018-08-25T06:40:24.514Z,12.40
2018-08-25T06:42:52.780Z,12.50
2018-08-25T06:45:21.102Z,12.60
2018-08-25T06:47:49.507Z,12.80
2018-08-25T06:50:17.935Z,12.90
2018-08-25T06:52:46.274Z,12.90
2018-08-25T06:55:14.589Z,13.10
2018-08-25T06:57:42.891Z,13.20
2018-08-25T07:00:11.181Z,13.30
2018-08-25T07:02:39.443Z,13.20
2018-08-25T07:05:07.822Z,13.40
2018-08-25T07:07:36.420Z,13.50
2018-08-25T07:10:04.782Z,13.60
2018-08-25T07:12:33.062Z,13.60
2018-08-25T07:15:01.330Z,13.60
2018-08-25T07:17:29.592Z,13.60
2018-08-25T07:19:58.001Z,13.70
2018-08-25T07:22:26.243Z,13.80
2018-08-25T07:24:54.510Z,13.90
2018-08-25T07:27:22.772Z,14.20
2018-08-25T07:29:51.056Z,14.40
2018-08-25T07:32:19.446Z,14.60
2018-08-25T07:34:48.292Z,14.80
2018-08-25T07:37:17.137Z,14.70
2018-08-25T07:39:45.997Z,14.80
2018-08-25T07:42:14.307Z,14.70
2018-08-25T07:44:42.648Z,14.60
2018-08-25T07:47:10.952Z,14.50
2018-08-25T07:49:39.292Z,14.50
2018-08-25T07:52:07.766Z,14.50
2018-08-25T07:54:36.055Z,14.60
2018-08-25T07:57:05.324Z,14.60
2018-08-25T07:59:33.623Z,14.70
2018-08-25T08:02:02.161Z,14.90
2018-08-25T08:04:30.992Z,15.10
2018-08-25T08:06:59.846Z,15.30
2018-08-25T08:09:28.955Z,15.40
2018-08-25T08:11:57.889Z,15.30
2018-08-25T08:14:26.869Z,15.20
2018-08-25T08:16:55.685Z,15.10
2018-08-25T08:19:24.566Z,15.20
2018-08-25T08:21:53.381Z,15.30
2018-08-25T08:24:22.265Z,15.30
2018-08-25T08:26:51.780Z,15.40
2018-08-25T08:29:20.644Z,15.40
2018-08-25T08:31:49.465Z,15.50
2018-08-25T08:34:18.306Z,15.70
2018-08-25T08:36:47.182Z,16.00
2018-08-25T08:39:16.037Z,16.30
2018-08-25T08:41:44.926Z,16.30
2018-08-25T08:44:13.781Z,16.40
2018-08-25T08:46:42.646Z,16.30
2018-08-25T08:49:11.607Z,16.30
2018-08-25T08:51:40.514Z,16.10
2018-08-25T08:54:09.570Z,16.10
2018-08-25T08:56:38.513Z,16.20
2018-08-25T08:59:08.060Z,16.30
2018-08-25T09:01:36.653Z,16.30
2018-08-25T09:04:05.590Z,16.50
2018-08-25T09:06:34.765Z,16.60
2018-08-25T09:09:04.540Z,16.60
2018-08-25T09:11:34.076Z,16.70
2018-08-25T09:14:03.363Z,16.70
2018-08-25T09:16:32.207Z,16.70
2018-08-25T09:19:01.093Z,16.80
2018-08-25T09:21:30.323Z,16.80
2018-08-25T09:23:59.338Z,16.90
2018-08-25T09:26:28.274Z,16.90
2018-08-25T09:28:57.485Z,16.90
2018-08-25T09:31:26.355Z,17.00
2018-08-25T09:33:55.254Z,17.10
2018-08-25T09:36:24.184Z,16.70
2018-08-25T09:38:53.265Z,15.80
2018-08-25T09:41:22.165Z,15.30
2018-08-25T09:43:51.368Z,15.10
2018-08-25T09:46:20.274Z,15.00
2018-08-25T09:48:51.435Z,15.10
2018-08-25T09:51:24.208Z,15.20
2018-08-25T09:53:59.639Z,15.20
2018-08-25T09:56:29.959Z,15.20
2018-08-25T09:58:58.402Z,15.20
2018-08-25T10:01:29.153Z,14.90
2018-08-25T10:04:00.801Z,14.50
2018-08-25T10:06:29.102Z,14.30
2018-08-25T10:08:57.426Z,14.20
2018-08-25T10:11:25.776Z,14.10
2018-08-25T10:13:54.102Z,14.10
2018-08-25T10:16:22.483Z,14.10
2018-08-25T10:18:51.229Z,14.10
2018-08-25T10:21:19.731Z,14.30
2018-08-25T10:23:48.076Z,14.50
2018-08-25T10:26:16.802Z,14.90
2018-08-25T10:28:45.413Z,15.00
2018-08-25T10:31:14.245Z,15.00
2018-08-25T10:33:42.677Z,14.70
2018-08-25T10:36:11.761Z,14.40
2018-08-25T10:38:40.152Z,14.30
2018-08-25T10:41:08.459Z,14.20
2018-08-25T10:43:36.783Z,14.10
2018-08-25T10:46:05.735Z,14.00
2018-08-25T10:48:34.205Z,14.00
2018-08-25T10:51:03.393Z,14.00
2018-08-25T10:53:31.772Z,14.00
2018-08-25T10:56:00.701Z,14.00
2018-08-25T10:58:29.017Z,14.00
2018-08-25T11:00:57.522Z,14.10
2018-08-25T11:03:25.977Z,14.10
2018-08-25T11:05:54.336Z,14.20
2018-08-25T11:08:23.025Z,14.30
2018-08-25T11:10:51.636Z,14.40
2018-08-25T11:13:20.212Z,14.70
2018-08-25T11:15:48.811Z,14.90
2018-08-25T11:18:18.000Z,15.00
2018-08-25T11:20:46.352Z,15.20
2018-08-25T11:23:15.220Z,15.40
2018-08-25T11:25:45.753Z,15.50
2018-08-25T11:28:14.180Z,15.40
2018-08-25T11:30:42.675Z,15.40
2018-08-25T11:33:11.031Z,15.30
2018-08-25T11:35:40.106Z,15.20
2018-08-25T11:38:08.861Z,14.90
2018-08-25T11:40:37.377Z,14.10
2018-08-25T11:43:05.746Z,13.90
2018-08-25T11:45:34.275Z,13.80
2018-08-25T11:48:03.217Z,13.80
2018-08-25T11:50:31.520Z,13.80
2018-08-25T11:52:59.872Z,13.90
2018-08-25T11:55:28.240Z,14.10
2018-08-25T11:57:56.624Z,14.40
2018-08-25T12:00:25.305Z,14.50
2018-08-25T12:02:53.687Z,14.70
2018-08-25T12:05:22.088Z,14.90
2018-08-25T12:07:50.444Z,15.10
2018-08-25T12:10:18.895Z,15.50
2018-08-25T12:12:47.279Z,15.70
2018-08-25T12:15:15.638Z,15.60
2018-08-25T12:17:43.973Z,15.00
2018-08-25T12:20:12.299Z,14.40
2018-08-25T12:22:40.655Z,14.20
2018-08-25T12:25:09.677Z,13.90
2018-08-25T12:27:38.024Z,13.90
2018-08-25T12:30:07.099Z,14.00
2018-08-25T12:32:35.468Z,14.20
2018-08-25T12:35:04.416Z,14.30
2018-08-25T12:37:32.806Z,14.40
2018-08-25T12:40:01.135Z,14.70
2018-08-25T12:42:29.448Z,14.90
2018-08-25T12:44:58.353Z,15.20
2018-08-25T12:47:28.110Z,15.30
2018-08-25T12:49:57.902Z,15.60
2018-08-25T12:52:26.802Z,15.80
2018-08-25T12:54:55.705Z,15.90
2018-08-25T12:57:24.590Z,15.90
2018-08-25T12:59:53.512Z,15.60
2018-08-25T13:02:22.419Z,15.10
2018-08-25T13:04:50.788Z,14.70
2018-08-25T13:07:19.161Z,14.70
2018-08-25T13:09:47.533Z,14.80
2018-08-25T13:12:15.875Z,14.80
2018-08-25T13:14:44.478Z,14.90
2018-08-25T13:17:13.018Z,15.00
2018-08-25T13:19:41.669Z,15.00
2018-08-25T13:22:10.087Z,14.30
2018-08-25T13:24:38.518Z,13.30
2018-08-25T13:27:06.893Z,12.90
2018-08-25T13:29:35.265Z,12.80
2018-08-25T13:32:03.839Z,12.90
2018-08-25T13:34:32.384Z,13.20
2018-08-25T13:37:00.766Z,13.40
2018-08-25T13:39:29.168Z,13.70
2018-08-25T13:41:57.549Z,13.90
2018-08-25T13:44:25.937Z,14.20
2018-08-25T13:46:54.284Z,14.50
2018-08-25T13:49:26.130Z,14.80
2018-08-25T13:51:54.510Z,15.00
2018-08-25T13:54:22.862Z,15.20
2018-08-25T13:56:51.251Z,15.40
2018-08-25T13:59:19.630Z,15.50
2018-08-25T14:01:48.305Z,15.60
2018-08-25T14:04:17.276Z,15.90
2018-08-25T14:06:46.669Z,16.00
2018-08-25T14:09:15.563Z,16.10
2018-08-25T14:11:44.449Z,16.30
2018-08-25T14:14:13.423Z,16.30
2018-08-25T14:16:42.357Z,16.40
2018-08-25T14:19:11.635Z,16.50
2018-08-25T14:21:40.517Z,16.40
2018-08-25T14:24:09.758Z,16.40
2018-08-25T14:26:38.633Z,16.40
2018-08-25T14:29:07.544Z,16.60
2018-08-25T14:31:36.455Z,16.70
2018-08-25T14:34:05.396Z,16.60
2018-08-25T14:36:34.267Z,16.40
2018-08-25T14:39:04.600Z,16.30
2018-08-25T14:41:33.644Z,16.00
2018-08-25T14:44:02.920Z,15.80
2018-08-25T14:46:31.793Z,15.50
2018-08-25T14:49:00.708Z,15.00
2018-08-25T14:51:29.604Z,14.80
2018-08-25T14:53:58.520Z,15.00
2018-08-25T14:56:27.899Z,15.00
2018-08-25T14:58:57.157Z,15.20
2018-08-25T15:01:25.988Z,15.50
2018-08-25T15:03:55.087Z,15.40
2018-08-25T15:06:23.966Z,15.40
2018-08-25T15:08:52.868Z,15.30
2018-08-25T15:11:21.718Z,15.30
2018-08-25T15:13:50.634Z,15.10
2018-08-25T15:16:19.329Z,14.30
2018-08-25T15:18:47.729Z,13.90
2018-08-25T15:21:16.238Z,13.90
2018-08-25T15:23:45.163Z,14.20
2018-08-25T15:26:14.033Z,14.60
2018-08-25T15:28:42.917Z,15.10
2018-08-25T15:31:11.761Z,15.60
2018-08-25T15:33:40.645Z,16.00
2018-08-25T15:36:09.551Z,16.40
2018-08-25T15:38:38.437Z,16.80
2018-08-25T15:41:07.308Z,17.00
2018-08-25T15:43:36.205Z,17.10
2018-08-25T15:46:05.453Z,17.40
2018-08-25T15:48:34.349Z,17.40
2018-08-25T15:51:03.263Z,17.70
2018-08-25T15:53:32.165Z,17.50
2018-08-25T15:56:01.018Z,17.00
2018-08-25T15:58:29.932Z,16.50
2018-08-25T16:00:58.254Z,16.30
2018-08-25T16:03:27.211Z,16.20
2018-08-25T16:05:56.729Z,16.60
2018-08-25T16:08:25.737Z,17.20
2018-08-25T16:10:54.614Z,17.70
2018-08-25T16:13:23.507Z,17.90
2018-08-25T16:15:52.373Z,18.20
2018-08-25T16:18:21.288Z,18.60
2018-08-25T16:20:50.151Z,18.90
2018-08-25T16:23:19.082Z,19.40
2018-08-25T16:25:48.049Z,19.80
2018-08-25T16:28:16.954Z,19.60
2018-08-25T16:30:46.218Z,19.00
2018-08-25T16:33:15.099Z,18.30
2018-08-25T16:35:44.157Z,17.70
2018-08-25T16:38:13.229Z,18.10
2018-08-25T16:40:42.083Z,18.70
2018-08-25T16:43:11.062Z,19.00
2018-08-25T16:45:40.010Z,18.80
2018-08-25T16:48:08.924Z,18.30
2018-08-25T16:50:37.763Z,17.90
2018-08-25T16:53:06.637Z,17.90
2018-08-25T16:55:35.501Z,17.80
2018-08-25T16:58:04.924Z,17.70
2018-08-25T17:00:33.795Z,17.50
2018-08-25T17:03:02.214Z,17.20
2018-08-25T17:05:31.125Z,17.10
2018-08-25T17:07:59.985Z,17.00
2018-08-25T17:10:28.944Z,16.70
2018-08-25T17:12:58.369Z,16.50
2018-08-25T17:15:27.755Z,16.50
2018-08-25T17:17:56.661Z,16.20
2018-08-25T17:20:25.911Z,15.90
2018-08-25T17:22:54.874Z,15.60
2018-08-25T17:25:23.748Z,15.20
2018-08-25T17:27:52.696Z,14.90
2018-08-25T17:30:21.653Z,14.60
2018-08-25T17:32:49.986Z,14.50
2018-08-25T17:35:18.351Z,14.50
2018-08-25T17:37:46.733Z,14.50
2018-08-25T17:40:15.681Z,14.50
2018-08-25T17:42:44.010Z,14.60
2018-08-25T17:45:13.025Z,14.70
2018-08-25T17:47:42.032Z,14.70
2018-08-25T17:50:10.948Z,14.80
2018-08-25T17:52:39.289Z,14.80
2018-08-25T17:55:08.226Z,14.80
2018-08-25T17:57:36.674Z,14.80
2018-08-25T18:00:06.473Z,14.80
2018-08-25T18:02:34.925Z,14.80
2018-08-25T18:05:03.657Z,14.80
2018-08-25T18:07:32.526Z,14.70
2018-08-25T18:10:01.405Z,14.70
2018-08-25T18:12:30.331Z,14.60
2018-08-25T18:14:58.685Z,14.60
2018-08-25T18:17:27.035Z,14.50
2018-08-25T18:19:55.547Z,14.50
2018-08-25T18:22:23.885Z,14.40
2018-08-25T18:24:52.802Z,14.30
2018-08-25T18:27:21.152Z,14.30
2018-08-25T18:29:49.667Z,14.20
2018-08-25T18:32:17.966Z,14.20
2018-08-25T18:34:46.311Z,14.10
2018-08-25T18:37:14.836Z,14.10
2018-08-25T18:39:46.804Z,14.00
2018-08-25T18:42:15.177Z,13.90
2018-08-25T18:44:44.069Z,13.80
2018-08-25T18:47:12.547Z,13.80
2018-08-25T18:49:41.184Z,13.70
2018-08-25T18:52:09.798Z,13.60
2018-08-25T18:54:38.352Z,13.60
2018-08-25T18:57:07.323Z,13.60
2018-08-25T18:59:36.006Z,13.50
2018-08-25T19:02:05.257Z,13.50
2018-08-25T19:04:34.217Z,13.40
2018-08-25T19:07:02.920Z,13.40
2018-08-25T19:09:31.517Z,13.30
2018-08-25T19:11:59.834Z,13.30
2018-08-25T19:14:28.313Z,13.30
2018-08-25T19:16:56.744Z,13.30
2018-08-25T19:19:25.278Z,13.20
2018-08-25T19:21:53.907Z,13.20
2018-08-25T19:24:22.794Z,13.20
2018-08-25T19:26:51.458Z,13.20
2018-08-25T19:29:19.846Z,13.20
2018-08-25T19:31:48.380Z,13.10
2018-08-25T19:34:16.869Z,13.10
2018-08-25T19:36:45.435Z,13.20
2018-08-25T19:39:13.779Z,13.10
2018-08-25T19:41:42.495Z,13.00
2018-08-25T19:44:11.038Z,13.00
2018-08-25T19:46:39.429Z,12.90
2018-08-25T19:49:07.878Z,12.90
2018-08-25T19:51:36.579Z,12.80
2018-08-25T19:54:05.318Z,12.80
2018-08-25T19:56:33.674Z,12.80
2018-08-25T19:59:02.092Z,12.70
2018-08-25T20:01:30.558Z,12.70
2018-08-25T20:03:59.179Z,12.70
2018-08-25T20:06:27.688Z,12.60
2018-08-25T20:08:56.441Z,12.60
2018-08-25T20:11:24.797Z,12.60
2018-08-25T20:13:53.114Z,12.50
2018-08-25T20:16:21.456Z,12.50
2018-08-25T20:18:49.832Z,12.40
2018-08-25T20:21:18.156Z,12.40
2018-08-25T20:23:46.486Z,12.40
2018-08-25T20:26:14.790Z,12.40
2018-08-25T20:28:43.616Z,12.30
2018-08-25T20:31:11.990Z,12.30
2018-08-25T20:33:40.319Z,12.30
2018-08-25T20:36:08.722Z,12.30
2018-08-25T20:38:37.058Z,12.30
2018-08-25T20:41:05.386Z,12.30
2018-08-25T20:43:33.730Z,12.40
2018-08-25T20:46:02.134Z,12.50
2018-08-25T20:48:30.634Z,12.50
2018-08-25T20:50:58.912Z,12.60
2018-08-25T20:53:27.349Z,12.60
2018-08-25T20:55:55.783Z,12.60
2018-08-25T20:58:24.280Z,12.60
2018-08-25T21:00:52.700Z,12.70
2018-08-25T21:03:21.121Z,12.70
2018-08-25T21:05:49.460Z,12.60
2018-08-25T21:08:17.776Z,12.60
2018-08-25T21:10:46.167Z,12.60
2018-08-25T21:13:14.524Z,12.60
2018-08-25T21:15:42.925Z,12.60
2018-08-25T21:18:11.392Z,12.60
2018-08-25T21:20:39.744Z,12.60
2018-08-25T21:23:08.116Z,12.70
2018-08-25T21:25:36.505Z,12.70
2018-08-25T21:28:05.183Z,12.70
2018-08-25T21:30:33.508Z,12.70
2018-08-25T21:33:01.895Z,12.80
2018-08-25T21:35:30.322Z,12.80
2018-08-25T21:37:58.728Z,12.70
2018-08-25T21:40:27.060Z,12.70
2018-08-25T21:42:55.460Z,12.60
2018-08-25T21:45:23.937Z,12.60
2018-08-25T21:47:52.272Z,12.60
2018-08-25T21:50:20.576Z,12.60
2018-08-25T21:52:48.965Z,12.60
2018-08-25T21:55:17.305Z,12.50
2018-08-25T21:57:45.621Z,12.40
2018-08-25T22:00:14.262Z,12.30
2018-08-25T22:02:42.579Z,12.30
2018-08-25T22:05:10.885Z,12.30
2018-08-25T22:07:39.471Z,12.20
2018-08-25T22:10:08.360Z,12.20
2018-08-25T22:12:36.691Z,12.10
2018-08-25T22:15:05.046Z,12.10
2018-08-25T22:17:33.418Z,12.00
2018-08-25T22:20:01.854Z,12.00
2018-08-25T22:22:30.249Z,11.90
2018-08-25T22:24:58.851Z,11.90
2018-08-25T22:27:27.192Z,11.90
2018-08-25T22:29:55.955Z,11.80
2018-08-25T22:32:24.258Z,11.80
2018-08-25T22:34:52.658Z,11.80
2018-08-25T22:37:21.003Z,11.80
2018-08-25T22:39:49.396Z,11.80
2018-08-25T22:42:17.737Z,11.80
2018-08-25T22:44:46.185Z,11.80
2018-08-25T22:47:14.871Z,11.80
2018-08-25T22:49:43.480Z,11.90
2018-08-25T22:52:11.806Z,12.00
2018-08-25T22:54:40.159Z,12.00
2018-08-25T22:57:08.466Z,12.00
2018-08-25T22:59:36.756Z,12.00
2018-08-25T23:02:05.180Z,12.00
2018-08-25T23:04:33.548Z,12.00
2018-08-25T23:07:01.895Z,12.00
2018-08-25T23:09:30.185Z,12.00
2018-08-25T23:11:58.481Z,12.00
2018-08-25T23:14:26.814Z,12.00
2018-08-25T23:16:55.789Z,11.90
2018-08-25T23:19:24.131Z,11.90
2018-08-25T23:21:52.469Z,11.90
2018-08-25T23:24:20.787Z,11.90
2018-08-25T23:26:49.156Z,11.90
2018-08-25T23:29:17.512Z,11.90
2018-08-25T23:31:45.794Z,11.80
2018-08-25T23:34:14.088Z,11.80
2018-08-25T23:36:42.907Z,11.80
2018-08-25T23:39:11.494Z,11.80
2018-08-25T23:41:39.824Z,11.70
2018-08-25T23:44:08.103Z,11.80
2018-08-25T23:46:36.428Z,11.70
2018-08-25T23:49:05.100Z,11.80
2018-08-25T23:51:33.400Z,11.80
2018-08-25T23:54:01.970Z,11.80
2018-08-25T23:56:30.283Z,11.80
2018-08-25T23:58:58.573Z,11.70
